createdAt,value
2023-05-09T00:02:46.248Z,8.87
2023-05-09T00:05:42.177Z,8.63
2023-05-09T00:08:41.890Z,8.67
2023-05-09T00:11:47.988Z,9.67
2023-05-09T00:14:47.912Z,9.17
2023-05-09T00:17:58.581Z,9.63
2023-05-09T00:20:47.764Z,8.43
2023-05-09T00:24:03.449Z,8.47
2023-05-09T00:27:11.873Z,8.57
2023-05-09T00:30:10.216Z,8.50
2023-05-09T00:33:00.506Z,9.20
2023-05-09T00:35:50.495Z,8.73
2023-05-09T00:38:49.505Z,9.63
2023-05-09T00:41:46.402Z,8.97
2023-05-09T00:44:44.951Z,8.77
2023-05-09T00:47:39.933Z,9.27
2023-05-09T00:50:38.613Z,9.60
2023-05-09T00:53:36.137Z,9.50
2023-05-09T00:56:27.163Z,9.73
2023-05-09T00:59:17.790Z,9.43
2023-05-09T01:02:32.316Z,9.70
2023-05-09T01:05:42.488Z,9.80
2023-05-09T01:08:57.953Z,8.10
2023-05-09T01:12:15.978Z,9.63
2023-05-09T01:15:19.416Z,9.43
2023-05-09T01:18:23.609Z,9.87
2023-05-09T01:21:22.334Z,9.80
2023-05-09T01:25:02.872Z,8.93
2023-05-09T01:28:20.349Z,9.03
2023-05-09T01:31:30.683Z,9.33
2023-05-09T01:34:24.745Z,8.87
2023-05-09T01:37:17.856Z,9.97
2023-05-09T01:40:18.906Z,8.97
2023-05-09T01:43:17.311Z,8.80
2023-05-09T01:46:33.918Z,9.67
2023-05-09T01:49:32.243Z,9.33
2023-05-09T01:52:35.825Z,9.03
2023-05-09T01:55:47.332Z,8.40
2023-05-09T01:58:45.753Z,9.10
2023-05-09T02:01:47.367Z,8.87
2023-05-09T02:04:52.567Z,8.73
2023-05-09T02:07:46.755Z,9.07
2023-05-09T02:10:42.185Z,8.90
2023-05-09T02:13:34.782Z,7.80
2023-05-09T02:16:28.416Z,8.40
2023-05-09T02:19:39.238Z,9.40
2023-05-09T02:22:38.730Z,9.23
2023-05-09T02:25:48.372Z,9.33
2023-05-09T02:28:55.876Z,8.17
2023-05-09T02:32:15.944Z,9.87
2023-05-09T02:35:11.704Z,9.73
2023-05-09T02:38:14.031Z,9.80
2023-05-09T02:41:19.259Z,10.37
2023-05-09T02:44:09.852Z,10.10
2023-05-09T02:47:18.667Z,10.10
2023-05-09T02:50:19.972Z,11.37
2023-05-09T02:53:11.804Z,10.67
2023-05-09T02:56:11.296Z,9.83
2023-05-09T02:59:01.651Z,11.67
2023-05-09T03:02:09.017Z,11.40
2023-05-09T03:04:58.305Z,11.27
2023-05-09T03:07:59.136Z,11.07
2023-05-09T03:11:12.139Z,11.37
2023-05-09T03:14:03.397Z,11.17
2023-05-09T03:17:00.720Z,10.13
2023-05-09T03:19:59.601Z,10.20
2023-05-09T03:23:05.130Z,10.07
2023-05-09T03:26:12.304Z,11.20
2023-05-09T03:29:06.108Z,11.30
2023-05-09T03:32:04.439Z,10.63
2023-05-09T03:34:55.204Z,11.33
2023-05-09T03:38:24.051Z,11.27
2023-05-09T03:41:31.427Z,9.80
2023-05-09T03:44:30.849Z,10.97
2023-05-09T03:47:38.181Z,10.50
2023-05-09T03:50:44.962Z,10.20
2023-05-09T03:54:02.230Z,10.27
2023-05-09T03:57:15.973Z,10.77
2023-05-09T04:00:16.984Z,11.37
2023-05-09T04:03:24.461Z,11.63
2023-05-09T04:06:14.759Z,13.07
2023-05-09T04:09:30.324Z,12.03
2023-05-09T04:12:41.082Z,11.63
2023-05-09T04:15:30.587Z,11.53
2023-05-09T04:18:31.816Z,13.43
2023-05-09T04:21:23.206Z,13.93
2023-05-09T04:24:25.772Z,13.77
2023-05-09T04:27:29.558Z,11.83
2023-05-09T04:30:27.907Z,13.07
2023-05-09T04:33:19.371Z,12.00
2023-05-09T04:36:18.257Z,12.07
2023-05-09T04:39:33.033Z,12.07
2023-05-09T04:42:40.103Z,12.83
2023-05-09T04:45:41.561Z,12.70
2023-05-09T04:48:53.744Z,12.57
2023-05-09T04:51:45.846Z,12.60
2023-05-09T04:54:39.770Z,13.20
2023-05-09T04:57:32.492Z,12.20
2023-05-09T05:00:34.662Z,12.40
2023-05-09T05:03:40.123Z,11.90
2023-05-09T05:06:30.853Z,12.50
2023-05-09T05:09:32.894Z,12.50
2023-05-09T05:12:43.432Z,11.93
2023-05-09T05:15:37.334Z,12.27
2023-05-09T05:18:46.826Z,11.33
2023-05-09T05:21:53.332Z,12.23
2023-05-09T05:24:44.564Z,11.90
2023-05-09T05:27:34.286Z,11.73
2023-05-09T05:30:35.883Z,12.50
2023-05-09T05:33:27.225Z,11.90
2023-05-09T05:36:18.321Z,12.63
2023-05-09T05:39:15.130Z,12.30
2023-05-09T05:42:17.403Z,12.77
2023-05-09T05:45:09.958Z,12.10
2023-05-09T05:48:21.604Z,12.20
2023-05-09T05:51:14.873Z,12.33
2023-05-09T05:54:13.443Z,12.70
2023-05-09T05:57:18.598Z,12.20
2023-05-09T06:00:15.071Z,12.57
2023-05-09T06:03:23.390Z,12.17
2023-05-09T06:06:31.517Z,12.07
2023-05-09T06:09:34.755Z,11.20
2023-05-09T06:12:35.563Z,10.90
2023-05-09T06:15:40.730Z,11.83
2023-05-09T06:18:41.823Z,12.00
2023-05-09T06:21:41.305Z,11.93
2023-05-09T06:24:35.906Z,11.83
2023-05-09T06:27:36.111Z,11.80
2023-05-09T06:30:41.283Z,11.00
2023-05-09T06:33:48.205Z,12.43
2023-05-09T06:36:37.681Z,12.53
2023-05-09T06:39:36.666Z,13.30
2023-05-09T06:42:40.836Z,14.43
2023-05-09T06:45:32.110Z,13.17
2023-05-09T06:48:39.094Z,12.37
2023-05-09T06:51:48.392Z,13.70
2023-05-09T06:54:42.561Z,14.13
2023-05-09T06:57:33.171Z,14.33
2023-05-09T07:00:24.550Z,14.03
2023-05-09T07:03:30.883Z,13.33
2023-05-09T07:06:29.425Z,13.30
2023-05-09T07:09:41.892Z,13.60
2023-05-09T07:12:34.415Z,14.03
2023-05-09T07:15:41.152Z,13.80
2023-05-09T07:18:42.216Z,13.23
2023-05-09T07:21:30.951Z,13.33
2023-05-09T07:24:40.463Z,12.07
2023-05-09T07:27:33.589Z,12.70
2023-05-09T07:30:29.392Z,12.90
2023-05-09T07:33:28.076Z,13.60
2023-05-09T07:36:33.131Z,12.87
2023-05-09T07:39:41.276Z,12.03
2023-05-09T07:42:52.282Z,12.50
2023-05-09T07:45:47.203Z,13.40
2023-05-09T07:48:38.536Z,11.83
2023-05-09T07:51:29.291Z,11.73
2023-05-09T07:54:25.861Z,12.47
2023-05-09T07:57:24.917Z,12.43
2023-05-09T08:00:26.907Z,12.23
2023-05-09T08:03:26.385Z,14.13
2023-05-09T08:06:36.814Z,13.47
2023-05-09T08:09:31.889Z,13.40
2023-05-09T08:12:40.147Z,13.53
2023-05-09T08:15:47.401Z,13.80
2023-05-09T08:18:39.749Z,13.30
2023-05-09T08:21:36.927Z,13.13
2023-05-09T08:24:37.327Z,13.20
2023-05-09T08:27:28.680Z,12.87
2023-05-09T08:30:26.912Z,13.60
2023-05-09T08:33:40.518Z,12.77
2023-05-09T08:36:36.848Z,12.80
2023-05-09T08:39:28.387Z,12.93
2023-05-09T08:42:26.828Z,12.97
2023-05-09T08:45:33.642Z,13.50
2023-05-09T08:48:49.023Z,12.77
2023-05-09T08:51:39.949Z,12.03
2023-05-09T08:54:31.009Z,12.77
2023-05-09T08:57:20.530Z,12.27
2023-05-09T09:00:21.387Z,11.93
2023-05-09T09:03:17.265Z,13.77
2023-05-09T09:06:26.336Z,12.80
2023-05-09T09:09:33.226Z,13.20
2023-05-09T09:12:26.473Z,12.87
2023-05-09T09:15:22.050Z,13.73
2023-05-09T09:18:27.135Z,13.90
2023-05-09T09:21:27.132Z,13.93
2023-05-09T09:24:29.888Z,13.27
2023-05-09T09:27:35.955Z,13.57
2023-05-09T09:30:36.377Z,13.23
2023-05-09T09:33:38.230Z,12.60
2023-05-09T09:36:37.127Z,12.23
2023-05-09T09:39:33.631Z,11.97
2023-05-09T09:42:44.801Z,12.03
2023-05-09T09:45:53.244Z,11.57
2023-05-09T09:48:55.581Z,12.70
2023-05-09T09:52:06.805Z,12.63
2023-05-09T09:55:02.697Z,12.80
2023-05-09T09:57:59.059Z,11.50
2023-05-09T10:00:48.134Z,11.20
2023-05-09T10:03:54.977Z,10.43
2023-05-09T10:06:57.388Z,10.90
2023-05-09T10:10:07.824Z,9.80
2023-05-09T10:13:01.141Z,9.80
2023-05-09T10:16:00.693Z,9.87
2023-05-09T10:18:51.332Z,10.67
2023-05-09T10:21:43.173Z,9.50
2023-05-09T10:24:49.770Z,9.57
2023-05-09T10:28:14.738Z,9.23
2023-05-09T10:31:14.365Z,8.53
2023-05-09T10:34:21.559Z,9.10
2023-05-09T10:37:13.037Z,9.03
2023-05-09T10:40:15.522Z,8.33
2023-05-09T10:43:13.265Z,8.63
2023-05-09T10:46:17.768Z,8.50
2023-05-09T10:49:08.709Z,7.97
2023-05-09T10:52:06.466Z,8.17
2023-05-09T10:55:06.278Z,7.13
2023-05-09T10:58:40.920Z,7.43
2023-05-09T11:01:39.230Z,7.73
2023-05-09T11:04:28.986Z,6.93
2023-05-09T11:07:37.662Z,6.50
2023-05-09T11:10:48.080Z,6.27
2023-05-09T11:13:51.180Z,5.93
2023-05-09T11:17:01.302Z,5.10
2023-05-09T11:20:07.868Z,4.67
2023-05-09T11:23:17.639Z,4.50
2023-05-09T11:26:11.628Z,4.03
2023-05-09T11:29:15.453Z,4.17
2023-05-09T11:32:13.825Z,4.27
2023-05-09T11:35:37.546Z,4.33
2023-05-09T11:38:26.780Z,4.30
2023-05-09T11:41:22.205Z,4.60
2023-05-09T11:44:32.268Z,3.87
2023-05-09T11:47:32.345Z,3.70
2023-05-09T11:50:30.433Z,3.53
2023-05-09T11:53:37.945Z,3.23
2023-05-09T11:56:35.267Z,3.97
2023-05-09T11:59:41.728Z,3.73
2023-05-09T12:02:39.178Z,3.80
2023-05-09T12:05:28.708Z,3.77
2023-05-09T12:08:28.981Z,3.60
2023-05-09T12:11:24.329Z,3.63
2023-05-09T12:14:42.330Z,3.57
2023-05-09T12:17:40.976Z,3.43
2023-05-09T12:20:47.510Z,3.50
2023-05-09T12:23:38.560Z,3.83
2023-05-09T12:26:35.484Z,4.10
2023-05-09T12:29:48.704Z,3.93
2023-05-09T12:32:41.111Z,4.10
2023-05-09T12:35:41.016Z,3.23
2023-05-09T12:38:42.070Z,3.47
2023-05-09T12:41:39.199Z,3.07
2023-05-09T12:45:00.302Z,3.50
2023-05-09T12:48:01.879Z,3.83
2023-05-09T12:50:54.398Z,4.10
2023-05-09T12:53:44.562Z,3.53
2023-05-09T12:56:41.735Z,3.60
2023-05-09T12:59:41.748Z,3.90
2023-05-09T13:02:57.634Z,3.30
2023-05-09T13:05:58.731Z,3.47
2023-05-09T13:09:00.866Z,3.73
2023-05-09T13:11:51.548Z,3.80
2023-05-09T13:14:58.508Z,3.27
2023-05-09T13:18:24.005Z,3.50
2023-05-09T13:21:15.552Z,3.53
2023-05-09T13:24:05.173Z,3.43
2023-05-09T13:27:11.362Z,3.10
2023-05-09T13:30:08.040Z,3.33
2023-05-09T13:33:26.970Z,3.00
2023-05-09T13:36:19.960Z,3.20
2023-05-09T13:39:25.139Z,3.37
2023-05-09T13:42:19.027Z,3.23
2023-05-09T13:45:15.193Z,3.30
2023-05-09T13:48:18.866Z,3.10
2023-05-09T13:51:27.779Z,3.00
2023-05-09T13:54:35.471Z,3.37
2023-05-09T13:57:46.983Z,3.27
2023-05-09T14:00:50.185Z,3.20
2023-05-09T14:03:54.524Z,3.40
2023-05-09T14:06:59.048Z,3.30
2023-05-09T14:10:11.006Z,3.40
2023-05-09T14:13:06.658Z,3.50
2023-05-09T14:15:56.265Z,3.57
2023-05-09T14:18:54.016Z,3.63
2023-05-09T14:21:43.905Z,3.80
2023-05-09T14:24:41.646Z,3.73
2023-05-09T14:27:39.808Z,3.50
2023-05-09T14:30:57.717Z,3.37
2023-05-09T14:33:55.229Z,3.80
2023-05-09T14:37:01.260Z,3.70
2023-05-09T14:39:53.812Z,3.43
2023-05-09T14:42:42.580Z,4.10
2023-05-09T14:45:51.345Z,3.60
2023-05-09T14:48:40.694Z,3.53
2023-05-09T14:51:51.702Z,3.90
2023-05-09T14:54:42.818Z,3.60
2023-05-09T14:57:50.265Z,3.90
2023-05-09T15:00:53.841Z,4.20
2023-05-09T15:03:49.650Z,3.53
2023-05-09T15:07:01.462Z,3.97
2023-05-09T15:10:15.602Z,3.37
2023-05-09T15:13:31.940Z,3.63
2023-05-09T15:16:21.619Z,3.90
2023-05-09T15:19:14.959Z,3.50
2023-05-09T15:22:34.119Z,3.70
2023-05-09T15:25:30.405Z,3.70
2023-05-09T15:28:35.682Z,4.10
2023-05-09T15:31:26.690Z,4.07
2023-05-09T15:34:24.692Z,3.63
2023-05-09T15:37:35.781Z,3.80
2023-05-09T15:40:42.624Z,4.07
2023-05-09T15:43:40.460Z,7.07
2023-05-09T15:46:33.736Z,13.63
2023-05-09T15:49:32.129Z,4.97
2023-05-09T15:52:36.080Z,6.40
2023-05-09T15:55:28.694Z,17.27
2023-05-09T15:58:18.193Z,6.13
2023-05-09T16:01:28.330Z,6.43
2023-05-09T16:04:22.696Z,5.27
2023-05-09T16:07:15.322Z,4.63
2023-05-09T16:10:22.292Z,4.13
2023-05-09T16:13:12.798Z,4.30
2023-05-09T16:16:10.833Z,5.37
2023-05-09T16:19:10.158Z,4.90
2023-05-09T16:22:05.840Z,4.40
2023-05-09T16:24:57.301Z,4.80
2023-05-09T16:27:51.089Z,5.00
2023-05-09T16:30:40.371Z,5.13
2023-05-09T16:33:30.529Z,5.73
2023-05-09T16:36:38.107Z,5.63
2023-05-09T16:39:33.042Z,6.50
2023-05-09T16:42:42.910Z,7.43
2023-05-09T16:45:53.261Z,6.70
2023-05-09T16:48:59.242Z,5.67
2023-05-09T16:51:55.097Z,6.60
2023-05-09T16:54:56.281Z,5.80
2023-05-09T16:58:04.154Z,6.03
2023-05-09T17:01:00.710Z,5.83
2023-05-09T17:03:51.005Z,6.03
2023-05-09T17:06:44.474Z,5.17
2023-05-09T17:09:49.055Z,5.27
2023-05-09T17:12:56.934Z,5.43
2023-05-09T17:15:55.121Z,5.27
2023-05-09T17:18:55.997Z,5.63
2023-05-09T17:21:50.044Z,5.07
2023-05-09T17:24:47.518Z,4.90
2023-05-09T17:27:36.980Z,5.40
2023-05-09T17:30:37.740Z,5.53
2023-05-09T17:33:43.642Z,5.80
2023-05-09T17:36:47.324Z,6.10
2023-05-09T17:39:42.859Z,5.33
2023-05-09T17:42:33.704Z,5.30
2023-05-09T17:45:39.721Z,6.77
2023-05-09T17:48:30.172Z,5.13
2023-05-09T17:51:33.245Z,5.00
2023-05-09T17:54:54.726Z,6.00
2023-05-09T17:57:55.468Z,5.67
2023-05-09T18:00:48.356Z,5.27
2023-05-09T18:03:58.265Z,6.03
2023-05-09T18:06:51.974Z,5.37
2023-05-09T18:09:51.904Z,6.20
2023-05-09T18:12:58.163Z,5.70
2023-05-09T18:16:08.209Z,5.57
2023-05-09T18:19:01.007Z,6.53
2023-05-09T18:22:23.732Z,6.37
2023-05-09T18:25:27.968Z,6.03
2023-05-09T18:28:40.194Z,6.43
2023-05-09T18:31:39.246Z,6.23
2023-05-09T18:34:34.143Z,6.60
2023-05-09T18:37:25.195Z,6.63
2023-05-09T18:40:37.564Z,6.40
2023-05-09T18:43:29.386Z,6.77
2023-05-09T18:46:28.119Z,5.77
2023-05-09T18:49:20.679Z,4.33
2023-05-09T18:52:19.324Z,4.30
2023-05-09T18:55:20.118Z,3.53
2023-05-09T18:58:24.952Z,3.47
2023-05-09T19:01:37.427Z,2.80
2023-05-09T19:04:36.595Z,2.60
2023-05-09T19:07:36.038Z,2.40
2023-05-09T19:10:36.556Z,2.53
2023-05-09T19:13:51.002Z,2.90
2023-05-09T19:16:50.295Z,3.43
2023-05-09T19:19:50.148Z,3.37
2023-05-09T19:22:41.537Z,3.07
2023-05-09T19:25:42.556Z,3.30
2023-05-09T19:28:35.567Z,3.00
2023-05-09T19:31:33.026Z,2.97
2023-05-09T19:34:25.318Z,3.27
2023-05-09T19:37:23.962Z,3.20
2023-05-09T19:40:34.309Z,3.23
2023-05-09T19:43:24.925Z,3.30
2023-05-09T19:46:23.350Z,3.07
2023-05-09T19:49:23.321Z,3.43
2023-05-09T19:52:13.908Z,2.77
2023-05-09T19:55:03.243Z,2.93
2023-05-09T19:57:53.538Z,3.03
2023-05-09T20:00:51.583Z,2.60
2023-05-09T20:03:57.140Z,2.80
2023-05-09T20:06:49.125Z,2.70
2023-05-09T20:09:45.284Z,2.27
2023-05-09T20:12:33.980Z,2.40
2023-05-09T20:15:30.845Z,2.60
2023-05-09T20:18:27.670Z,2.60
2023-05-09T20:21:36.754Z,2.33
2023-05-09T20:24:37.873Z,2.20
2023-05-09T20:27:26.994Z,2.30
2023-05-09T20:30:17.682Z,2.07
2023-05-09T20:33:19.666Z,2.20
2023-05-09T20:36:43.230Z,2.10
2023-05-09T20:39:33.091Z,2.00
2023-05-09T20:42:31.385Z,2.20
2023-05-09T20:45:35.085Z,2.17
2023-05-09T20:48:25.233Z,2.43
2023-05-09T20:51:22.374Z,2.23
2023-05-09T20:54:14.344Z,2.37
2023-05-09T20:57:10.069Z,2.40
2023-05-09T21:00:09.923Z,2.20
2023-05-09T21:03:31.620Z,2.53
2023-05-09T21:06:30.710Z,2.30
2023-05-09T21:09:46.377Z,2.40
2023-05-09T21:12:44.927Z,2.30
2023-05-09T21:15:33.750Z,2.30
2023-05-09T21:18:42.292Z,2.20
2023-05-09T21:21:33.432Z,2.20
2023-05-09T21:24:44.197Z,2.40
2023-05-09T21:27:45.617Z,2.43
2023-05-09T21:30:34.815Z,2.50
2023-05-09T21:33:34.838Z,2.50
2023-05-09T21:36:23.826Z,2.40
2023-05-09T21:39:24.501Z,2.50
2023-05-09T21:42:38.494Z,2.63
2023-05-09T21:45:38.228Z,2.60
2023-05-09T21:48:33.052Z,2.67
2023-05-09T21:51:27.646Z,2.20
2023-05-09T21:54:17.013Z,1.80
2023-05-09T21:57:15.830Z,1.80
2023-05-09T22:00:19.614Z,1.97
2023-05-09T22:03:13.281Z,1.70
2023-05-09T22:06:17.376Z,1.60
2023-05-09T22:09:09.352Z,1.77
2023-05-09T22:12:14.562Z,1.50
2023-05-09T22:15:17.278Z,1.90
2023-05-09T22:18:18.174Z,1.57
2023-05-09T22:21:23.363Z,1.60
2023-05-09T22:24:16.998Z,1.60
2023-05-09T22:27:05.599Z,1.93
2023-05-09T22:30:04.098Z,1.50
2023-05-09T22:33:13.038Z,1.50
2023-05-09T22:36:08.960Z,1.67
2023-05-09T22:39:14.755Z,1.70
2023-05-09T22:42:27.577Z,1.70
2023-05-09T22:45:26.568Z,1.53
2023-05-09T22:48:24.085Z,1.80
2023-05-09T22:51:15.390Z,1.70
2023-05-09T22:54:15.951Z,1.80
2023-05-09T22:57:04.655Z,2.00
2023-05-09T22:59:54.213Z,2.10
2023-05-09T23:02:51.847Z,2.13
2023-05-09T23:05:50.092Z,2.10
2023-05-09T23:08:39.677Z,1.87
2023-05-09T23:11:38.750Z,2.33
2023-05-09T23:14:30.168Z,2.43
2023-05-09T23:17:19.197Z,2.50
2023-05-09T23:20:26.688Z,2.40
2023-05-09T23:23:46.903Z,1.97
2023-05-09T23:26:41.157Z,1.87
2023-05-09T23:29:57.346Z,1.70
2023-05-09T23:32:47.067Z,1.43
2023-05-09T23:35:45.382Z,1.60
2023-05-09T23:38:55.333Z,1.60
2023-05-09T23:41:55.514Z,1.40
2023-05-09T23:45:02.784Z,1.27
2023-05-09T23:48:07.910Z,1.40
2023-05-09T23:51:06.202Z,1.23
2023-05-09T23:54:03.599Z,1.40
2023-05-09T23:56:57.714Z,1.50
2023-05-09T23:59:56.638Z,1.77
